Time;durP1;ratioP1;P1;durP2;ratioP2;P2;SDS_P1;SDS_P2;PMS_P1;PMS_P2;Temp;Humidity;BMP_temperature;BMP_pressure;BME280_temperature;BME280_humidity;BME280_pressure;Samples;Min_cycle;Max_cycle;Signal;HPM_P1;HPM_P2
2023/09/05 00:00:13;;;;;;;4.13;2.03;;;19.70;99.90;;;;;;5090219;28;20062;-86
2023/09/05 00:02:39;;;;;;;8.35;2.20;;;19.70;99.90;;;;;;5066329;28;20031;-85
2023/09/05 00:05:07;;;;;;;2.95;1.60;;;19.70;99.90;;;;;;5085716;28;20035;-81
2023/09/05 00:07:35;;;;;;;5.15;2.05;;;19.70;99.90;;;;;;5086890;28;20016;-85
2023/09/05 00:10:05;;;;;;;2.80;1.50;;;19.60;99.90;;;;;;5086164;28;20024;-85
2023/09/05 00:12:31;;;;;;;2.38;1.20;;;19.60;99.90;;;;;;5067486;28;20028;-83
2023/09/05 00:15:00;;;;;;;3.05;1.90;;;19.60;99.90;;;;;;5066751;28;20052;-84
2023/09/05 00:17:26;;;;;;;5.30;1.98;;;19.60;99.90;;;;;;5069271;28;20028;-82
2023/09/05 00:19:55;;;;;;;3.47;1.65;;;19.60;99.90;;;;;;5068620;28;20038;-84
2023/09/05 00:22:21;;;;;;;3.75;2.20;;;19.60;99.90;;;;;;5068360;28;20020;-84
2023/09/05 00:24:48;;;;;;;5.10;1.83;;;19.60;99.90;;;;;;5071576;28;20035;-81
2023/09/05 00:27:13;;;;;;;3.00;1.90;;;19.60;99.90;;;;;;5072984;28;20032;-86
2023/09/05 00:29:40;;;;;;;4.45;1.77;;;19.60;99.90;;;;;;5072318;28;20481;-83
2023/09/05 00:32:07;;;;;;;5.28;2.03;;;19.60;99.90;;;;;;5090869;28;20035;-83
2023/09/05 00:34:37;;;;;;;3.20;2.00;;;19.60;99.90;;;;;;5090536;28;20055;-84
2023/09/05 00:37:08;;;;;;;5.55;1.70;;;19.60;99.90;;;;;;5073272;28;20035;-82
2023/09/05 00:39:35;;;;;;;4.65;1.63;;;19.60;99.90;;;;;;5066966;28;20472;-85
2023/09/05 00:42:05;;;;;;;5.20;1.80;;;19.60;99.90;;;;;;5071197;28;20058;-81
2023/09/05 00:44:31;;;;;;;6.88;1.90;;;19.50;99.90;;;;;;5067346;28;20028;-85
2023/09/05 00:47:00;;;;;;;4.38;1.77;;;19.50;99.90;;;;;;5070611;28;20028;-84
2023/09/05 00:49:27;;;;;;;4.82;1.77;;;19.50;99.90;;;;;;5090893;28;20032;-86
2023/09/05 00:52:02;;;;;;;2.75;1.42;;;19.50;99.90;;;;;;5072081;28;20043;-83
2023/09/05 00:54:29;;;;;;;5.25;2.00;;;19.50;99.90;;;;;;5073422;28;20039;-82
2023/09/05 00:56:55;;;;;;;4.22;1.40;;;19.50;99.90;;;;;;5089837;28;20024;-84
2023/09/05 00:59:21;;;;;;;3.58;1.40;;;19.50;99.90;;;;;;5089799;28;21710;-86
2023/09/05 01:01:48;;;;;;;3.95;2.15;;;19.50;99.90;;;;;;5090021;28;20032;-85
2023/09/05 01:04:16;;;;;;;4.68;1.67;;;19.50;99.90;;;;;;5072310;28;20028;-81
2023/09/05 01:07:00;;;;;;;3.65;1.63;;;19.40;99.90;;;;;;5089340;28;20032;-85
2023/09/05 01:09:38;;;;;;;2.90;1.90;;;19.40;99.90;;;;;;5069914;28;20084;-82
2023/09/05 01:12:05;;;;;;;2.55;1.45;;;19.40;99.90;;;;;;5090002;28;20067;-81
2023/09/05 01:14:33;;;;;;;8.10;1.63;;;19.40;99.90;;;;;;5072142;28;20078;-83
2023/09/05 01:17:01;;;;;;;3.97;1.33;;;19.40;99.90;;;;;;5072119;28;20042;-81
2023/09/05 01:19:34;;;;;;;2.15;1.38;;;19.40;99.90;;;;;;5068577;28;20647;-86
2023/09/05 01:22:21;;;;;;;6.07;1.88;;;19.40;99.90;;;;;;5089636;28;20067;-84
2023/09/05 01:24:49;;;;;;;4.55;1.52;;;19.40;99.90;;;;;;5089179;28;20020;-82
2023/09/05 01:27:17;;;;;;;2.25;1.40;;;19.40;99.90;;;;;;5072560;28;20352;-84
2023/09/05 01:29:47;;;;;;;4.25;1.80;;;19.40;99.90;;;;;;5071929;28;20043;-85
2023/09/05 01:32:13;;;;;;;2.38;1.30;;;19.30;99.90;;;;;;5088421;28;20032;-86
2023/09/05 01:34:40;;;;;;;3.85;1.35;;;19.30;99.90;;;;;;5065979;28;20031;-83
2023/09/05 01:37:15;;;;;;;6.90;2.03;;;19.30;99.90;;;;;;5089623;28;20028;-82
2023/09/05 01:39:41;;;;;;;4.07;2.38;;;19.30;99.90;;;;;;5071551;28;20035;-82
2023/09/05 01:42:07;;;;;;;4.05;1.50;;;19.30;99.90;;;;;;5070614;28;20077;-84
2023/09/05 01:44:34;;;;;;;3.28;1.67;;;19.30;99.90;;;;;;5088894;28;20066;-80
2023/09/05 01:47:00;;;;;;;2.13;1.30;;;19.40;99.90;;;;;;5069228;28;20039;-79
2023/09/05 01:49:26;;;;;;;3.53;1.73;;;19.40;99.90;;;;;;5089896;28;20028;-82
2023/09/05 01:51:56;;;;;;;7.43;1.90;;;19.40;99.90;;;;;;5071975;28;20028;-81
2023/09/05 01:54:21;;;;;;;4.45;2.47;;;19.30;99.90;;;;;;5070102;28;20364;-81
2023/09/05 01:56:47;;;;;;;3.92;1.90;;;19.30;99.90;;;;;;5089480;28;20035;-82
2023/09/05 01:59:13;;;;;;;2.97;1.42;;;19.30;99.90;;;;;;5070683;28;20448;-82
2023/09/05 02:01:38;;;;;;;4.22;1.40;;;19.30;99.90;;;;;;5089257;28;20120;-84
2023/09/05 02:04:04;;;;;;;6.88;1.65;;;19.30;99.90;;;;;;5069559;28;20035;-81
2023/09/05 02:06:30;;;;;;;4.00;1.77;;;19.20;99.90;;;;;;5069220;28;20065;-80
2023/09/05 02:08:56;;;;;;;2.88;1.50;;;19.20;99.90;;;;;;5070544;28;20073;-85
2023/09/05 02:11:24;;;;;;;4.38;1.60;;;19.20;99.90;;;;;;5067872;28;20325;-85
2023/09/05 02:13:51;;;;;;;3.65;1.42;;;19.20;99.90;;;;;;5065049;28;20036;-84
2023/09/05 02:16:18;;;;;;;5.05;1.70;;;19.20;99.90;;;;;;5089783;28;20028;-86
2023/09/05 02:18:48;;;;;;;4.43;1.95;;;19.20;99.90;;;;;;5088410;28;20028;-85
2023/09/05 02:21:15;;;;;;;3.33;1.80;;;19.10;99.90;;;;;;5089029;28;20024;-85
2023/09/05 02:23:43;;;;;;;3.25;1.88;;;19.10;99.90;;;;;;5070420;28;20031;-80
2023/09/05 02:26:09;;;;;;;4.30;1.52;;;19.00;99.90;;;;;;5092739;28;20111;-84
2023/09/05 02:28:35;;;;;;;4.13;1.75;;;19.00;99.90;;;;;;5088906;28;20452;-81
2023/09/05 02:31:06;;;;;;;6.05;2.15;;;19.00;99.90;;;;;;5073785;28;20035;-84
2023/09/05 02:33:34;;;;;;;4.03;1.40;;;19.00;99.90;;;;;;5071267;28;20046;-81
2023/09/05 02:36:15;;;;;;;3.17;1.63;;;18.90;99.90;;;;;;5088492;28;20040;-82
2023/09/05 02:38:46;;;;;;;3.55;1.95;;;18.90;99.90;;;;;;5070065;28;20039;-83
2023/09/05 02:41:16;;;;;;;4.30;1.92;;;18.80;99.90;;;;;;5066133;28;20028;-82
2023/09/05 02:43:41;;;;;;;3.50;1.83;;;18.80;99.90;;;;;;5070567;28;20028;-81
2023/09/05 02:46:08;;;;;;;6.53;2.25;;;18.80;99.90;;;;;;5071064;28;20093;-83
2023/09/05 02:48:41;;;;;;;5.47;2.58;;;18.70;99.90;;;;;;5072075;28;20075;-84
2023/09/05 02:51:14;;;;;;;3.40;1.70;;;18.70;99.90;;;;;;5088138;28;20028;-82
2023/09/05 02:53:41;;;;;;;4.30;1.88;;;18.60;99.90;;;;;;5069945;28;20031;-84
2023/09/05 02:56:07;;;;;;;11.80;1.85;;;18.60;99.90;;;;;;5071396;28;20479;-85
2023/09/05 02:58:33;;;;;;;3.95;2.20;;;18.60;99.90;;;;;;5070658;28;20199;-80
2023/09/05 03:01:04;;;;;;;6.95;2.00;;;18.60;99.90;;;;;;5087687;28;20075;-84
2023/09/05 03:03:30;;;;;;;2.97;1.60;;;18.50;99.90;;;;;;5070242;28;20055;-81
2023/09/05 03:05:56;;;;;;;3.42;1.58;;;18.50;99.90;;;;;;5062381;28;20711;-83
2023/09/05 03:08:25;;;;;;;2.40;1.70;;;18.50;99.90;;;;;;5069498;28;20024;-83
2023/09/05 03:10:52;;;;;;;3.05;1.73;;;18.50;99.90;;;;;;5087070;28;20089;-80
2023/09/05 03:13:19;;;;;;;3.10;1.63;;;18.40;99.90;;;;;;5087105;28;20074;-83
2023/09/05 03:15:44;;;;;;;4.38;2.03;;;18.40;99.90;;;;;;5087607;28;20111;-83
2023/09/05 03:18:10;;;;;;;5.25;2.42;;;18.40;99.90;;;;;;5087139;28;20144;-80
2023/09/05 03:20:35;;;;;;;5.25;1.90;;;18.40;99.90;;;;;;5069809;28;20024;-81
2023/09/05 03:23:01;;;;;;;4.00;1.45;;;18.40;99.90;;;;;;5087877;28;20078;-82
2023/09/05 03:25:26;;;;;;;2.58;1.60;;;18.40;99.90;;;;;;5089483;28;20027;-81
2023/09/05 03:27:57;;;;;;;3.05;1.83;;;18.40;99.90;;;;;;5088521;28;20099;-81
2023/09/05 03:30:23;;;;;;;3.70;1.60;;;18.30;99.90;;;;;;5068803;28;20028;-82
2023/09/05 03:32:51;;;;;;;4.03;1.92;;;18.30;99.90;;;;;;5088836;28;20039;-81
2023/09/05 03:35:19;;;;;;;4.22;2.00;;;18.40;99.90;;;;;;5089281;28;20020;-82
2023/09/05 03:37:44;;;;;;;3.60;1.90;;;18.40;99.90;;;;;;5068783;28;20048;-83
2023/09/05 03:40:13;;;;;;;2.47;1.45;;;18.30;99.90;;;;;;5070291;28;20063;-79
2023/09/05 03:42:38;;;;;;;3.30;1.48;;;18.30;99.90;;;;;;5064472;28;20081;-82
2023/09/05 03:45:08;;;;;;;4.82;2.97;;;18.30;99.90;;;;;;5086652;28;20024;-80
2023/09/05 03:47:33;;;;;;;4.90;2.05;;;18.30;99.90;;;;;;5086340;28;20571;-83
2023/09/05 03:49:59;;;;;;;3.15;1.90;;;18.30;99.90;;;;;;5068627;28;20118;-79
2023/09/05 03:52:25;;;;;;;3.45;1.55;;;18.30;99.90;;;;;;5069100;28;20442;-82
2023/09/05 03:54:50;;;;;;;4.78;3.28;;;18.40;99.90;;;;;;5070233;28;20028;-78
2023/09/05 03:57:18;;;;;;;5.97;3.33;;;18.40;99.90;;;;;;5065709;28;20060;-83
2023/09/05 03:59:44;;;;;;;6.05;3.53;;;18.30;99.90;;;;;;5068401;28;20097;-81
2023/09/05 04:02:09;;;;;;;5.82;2.95;;;18.30;99.90;;;;;;5067398;28;20020;-82
2023/09/05 04:04:35;;;;;;;7.03;3.67;;;18.30;99.90;;;;;;5067712;28;20028;-82
2023/09/05 04:07:00;;;;;;;3.83;1.95;;;18.30;99.90;;;;;;5069585;28;20566;-81
2023/09/05 04:09:28;;;;;;;3.17;1.63;;;18.30;99.90;;;;;;5067406;28;20051;-80
2023/09/05 04:11:54;;;;;;;5.25;2.13;;;18.30;99.90;;;;;;5070505;28;20028;-80
2023/09/05 04:14:21;;;;;;;3.90;2.13;;;18.30;99.90;;;;;;5087774;28;20039;-81
2023/09/05 04:16:49;;;;;;;3.28;1.95;;;18.20;99.90;;;;;;5069962;28;20109;-84
2023/09/05 04:19:15;;;;;;;3.42;2.53;;;18.20;99.90;;;;;;5070403;28;20028;-79
2023/09/05 04:21:40;;;;;;;4.20;1.60;;;18.20;99.90;;;;;;5068573;28;20039;-81
2023/09/05 04:24:06;;;;;;;3.22;2.05;;;18.20;99.90;;;;;;5076649;28;20024;-78
2023/09/05 04:26:33;;;;;;;3.95;2.03;;;18.20;99.90;;;;;;5090706;28;20475;-80
2023/09/05 04:29:01;;;;;;;2.63;1.77;;;18.20;99.90;;;;;;5089904;28;20024;-81
2023/09/05 04:31:29;;;;;;;3.53;1.63;;;18.20;99.90;;;;;;5076071;28;20028;-79
2023/09/05 04:33:54;;;;;;;10.77;2.42;;;18.20;99.90;;;;;;5073385;28;20524;-81
2023/09/05 04:36:22;;;;;;;8.30;1.83;;;18.20;99.90;;;;;;5076523;28;20126;-79
2023/09/05 04:38:50;;;;;;;3.67;2.00;;;18.20;99.90;;;;;;5089202;28;20123;-84
2023/09/05 04:41:20;;;;;;;3.90;2.20;;;18.20;99.90;;;;;;5074377;28;20054;-80
2023/09/05 04:43:46;;;;;;;4.20;1.92;;;18.20;99.90;;;;;;5071571;28;20028;-79
2023/09/05 04:46:12;;;;;;;6.13;2.67;;;18.20;99.90;;;;;;5072832;28;20028;-82
2023/09/05 04:48:41;;;;;;;4.32;2.25;;;18.20;99.90;;;;;;5092219;28;20057;-78
2023/09/05 04:51:06;;;;;;;2.60;1.77;;;18.20;99.90;;;;;;5072777;28;20039;-80
2023/09/05 04:53:33;;;;;;;4.50;2.28;;;18.20;99.90;;;;;;5069930;28;20381;-79
2023/09/05 04:56:00;;;;;;;5.00;2.42;;;18.20;99.90;;;;;;5088246;28;20032;-80
2023/09/05 04:58:29;;;;;;;3.80;2.13;;;18.20;99.90;;;;;;5070222;28;20104;-81
2023/09/05 05:01:02;;;;;;;5.25;2.22;;;18.20;99.90;;;;;;5090886;28;20028;-81
2023/09/05 05:03:32;;;;;;;4.10;1.83;;;18.20;99.90;;;;;;5088779;28;20024;-82
2023/09/05 05:06:00;;;;;;;3.55;1.80;;;18.30;99.90;;;;;;5069142;28;20016;-81
2023/09/05 05:08:26;;;;;;;4.53;1.98;;;18.30;99.90;;;;;;5088165;28;20044;-82
2023/09/05 05:10:54;;;;;;;11.20;1.85;;;18.30;99.90;;;;;;5072219;28;20035;-81
2023/09/05 05:13:22;;;;;;;3.83;1.70;;;18.30;99.90;;;;;;5091302;28;20092;-81
2023/09/05 05:15:47;;;;;;;3.72;1.90;;;18.30;99.90;;;;;;5070157;28;20112;-80
2023/09/05 05:18:14;;;;;;;6.10;2.47;;;18.30;99.90;;;;;;5070077;28;20064;-83
2023/09/05 05:20:40;;;;;;;3.83;1.70;;;18.30;99.90;;;;;;5089996;28;20117;-80
2023/09/05 05:23:06;;;;;;;4.18;2.40;;;18.30;99.90;;;;;;5071358;28;20105;-82
2023/09/05 05:25:34;;;;;;;3.72;2.60;;;18.30;99.90;;;;;;5071033;28;20119;-83
2023/09/05 05:27:59;;;;;;;7.63;3.05;;;18.30;99.90;;;;;;5070247;28;20428;-83
2023/09/05 05:30:27;;;;;;;6.10;3.22;;;18.30;99.90;;;;;;5068704;28;20046;-82
2023/09/05 05:32:55;;;;;;;4.88;2.65;;;18.30;99.90;;;;;;5072392;28;20043;-82
2023/09/05 05:35:21;;;;;;;4.80;2.60;;;18.30;99.90;;;;;;5090137;28;20042;-83
2023/09/05 05:37:49;;;;;;;5.65;2.72;;;18.40;99.90;;;;;;5069822;28;20028;-82
2023/09/05 05:40:16;;;;;;;9.57;3.22;;;18.40;99.90;;;;;;5070723;28;20036;-81
2023/09/05 05:42:41;;;;;;;5.93;1.80;;;18.40;99.90;;;;;;5069989;28;20032;-82
2023/09/05 05:45:10;;;;;;;6.40;2.10;;;18.50;99.90;;;;;;5089414;28;20552;-79
2023/09/05 05:47:35;;;;;;;4.78;1.90;;;18.50;99.90;;;;;;5089156;28;20685;-84
2023/09/05 05:50:01;;;;;;;4.63;1.90;;;18.60;99.90;;;;;;5088326;28;20032;-78
2023/09/05 05:52:27;;;;;;;3.30;1.70;;;18.60;99.90;;;;;;5090110;28;20059;-84
2023/09/05 05:54:53;;;;;;;7.72;2.30;;;18.70;99.90;;;;;;5069567;28;20679;-83
2023/09/05 05:57:21;;;;;;;4.47;2.58;;;18.70;99.90;;;;;;5068670;28;20036;-83
2023/09/05 05:59:46;;;;;;;5.57;2.05;;;18.70;99.90;;;;;;5073256;28;20112;-82
2023/09/05 06:02:15;;;;;;;4.30;1.95;;;18.80;99.90;;;;;;5068651;28;20606;-86
2023/09/05 06:04:40;;;;;;;6.40;2.10;;;18.80;99.90;;;;;;5089419;28;20027;-80
2023/09/05 06:07:06;;;;;;;3.45;1.92;;;18.90;99.90;;;;;;5068562;28;20039;-85
2023/09/05 06:09:32;;;;;;;3.33;2.17;;;18.90;99.90;;;;;;5072693;28;20049;-79
2023/09/05 06:12:00;;;;;;;7.78;2.72;;;19.00;99.90;;;;;;5092334;28;20031;-82
2023/09/05 06:14:28;;;;;;;5.43;2.83;;;19.00;99.90;;;;;;5070634;28;20085;-81
2023/09/05 06:16:56;;;;;;;8.10;2.40;;;19.00;99.90;;;;;;5069125;28;20036;-85
2023/09/05 06:19:22;;;;;;;7.75;3.97;;;19.10;99.90;;;;;;5078286;28;20035;-85
2023/09/05 06:21:47;;;;;;;6.20;2.30;;;19.10;99.90;;;;;;5078374;28;20028;-83
2023/09/05 06:24:13;;;;;;;5.63;2.20;;;19.10;99.90;;;;;;5072313;28;20079;-85
2023/09/05 06:26:41;;;;;;;5.10;2.00;;;19.10;99.90;;;;;;5088567;28;20056;-81
2023/09/05 06:29:11;;;;;;;4.32;2.60;;;19.20;99.90;;;;;;5072893;28;20445;-85
2023/09/05 06:31:36;;;;;;;4.45;2.53;;;19.30;99.90;;;;;;5072893;28;20052;-85
2023/09/05 06:34:02;;;;;;;5.90;2.78;;;19.40;99.90;;;;;;5070109;28;20052;-83
2023/09/05 06:36:28;;;;;;;5.15;2.88;;;19.40;99.90;;;;;;5088703;28;20028;-84
2023/09/05 06:38:58;;;;;;;3.55;2.17;;;19.40;99.90;;;;;;5071415;28;20039;-82
2023/09/05 06:41:24;;;;;;;2.50;1.65;;;19.50;99.90;;;;;;5072929;28;20016;-83
2023/09/05 06:43:52;;;;;;;5.72;2.35;;;19.50;99.90;;;;;;5070619;28;20039;-85
2023/09/05 06:46:17;;;;;;;5.65;2.10;;;19.50;99.90;;;;;;5069647;28;20107;-84
2023/09/05 06:48:43;;;;;;;6.40;2.90;;;19.60;99.90;;;;;;5088560;28;20095;-85
2023/09/05 06:51:08;;;;;;;4.13;2.03;;;19.60;99.90;;;;;;5069726;28;20616;-84
2023/09/05 06:53:36;;;;;;;3.30;2.25;;;19.60;99.90;;;;;;5087293;28;20028;-83
2023/09/05 06:56:05;;;;;;;6.05;2.00;;;19.60;99.90;;;;;;5069236;28;20039;-83
2023/09/05 06:58:31;;;;;;;5.50;2.25;;;19.70;99.90;;;;;;5089283;28;20020;-84
2023/09/05 07:00:58;;;;;;;4.22;2.55;;;19.70;99.90;;;;;;5067935;28;20038;-84
2023/09/05 07:03:25;;;;;;;8.05;2.42;;;19.70;99.90;;;;;;5069660;28;20165;-85
2023/09/05 07:05:52;;;;;;;5.30;2.47;;;19.80;99.90;;;;;;5072559;28;20154;-84
2023/09/05 07:08:18;;;;;;;4.00;2.30;;;19.70;99.90;;;;;;5087547;28;20028;-84
2023/09/05 07:10:45;;;;;;;2.90;1.85;;;19.80;99.90;;;;;;5067781;28;20201;-83
2023/09/05 07:13:12;;;;;;;6.35;2.25;;;19.80;99.90;;;;;;5064008;28;20031;-81
2023/09/05 07:15:39;;;;;;;5.45;1.42;;;20.00;99.90;;;;;;5088158;28;20024;-83
2023/09/05 07:18:07;;;;;;;5.40;1.80;;;20.00;99.90;;;;;;5069688;28;20028;-82
2023/09/05 07:20:33;;;;;;;5.75;1.90;;;20.00;99.90;;;;;;5064442;28;20024;-83
2023/09/05 07:23:01;;;;;;;8.05;2.33;;;20.00;99.90;;;;;;5087259;28;20039;-82
2023/09/05 07:25:26;;;;;;;6.03;2.00;;;20.00;99.90;;;;;;5087270;28;20444;-84
2023/09/05 07:27:52;;;;;;;3.72;1.60;;;20.10;99.90;;;;;;5068812;28;20028;-84
2023/09/05 07:30:18;;;;;;;4.43;2.10;;;20.10;99.90;;;;;;5087340;28;20024;-83
2023/09/05 07:32:44;;;;;;;6.80;2.17;;;20.10;99.90;;;;;;5067343;28;20046;-82
2023/09/05 07:35:09;;;;;;;4.00;1.80;;;20.20;99.90;;;;;;5068621;28;20028;-85
2023/09/05 07:37:38;;;;;;;2.80;1.50;;;20.20;99.90;;;;;;5086645;28;20089;-81
2023/09/05 07:40:05;;;;;;;4.80;1.90;;;20.30;99.90;;;;;;5068668;28;20107;-83
2023/09/05 07:42:33;;;;;;;6.82;2.40;;;20.40;99.90;;;;;;5066947;28;20028;-82
2023/09/05 07:45:01;;;;;;;4.50;1.65;;;20.40;99.90;;;;;;5065729;28;20395;-82
2023/09/05 07:47:29;;;;;;;5.05;2.65;;;20.40;99.90;;;;;;5086227;28;20020;-82
2023/09/05 07:49:55;;;;;;;3.38;2.00;;;20.40;99.90;;;;;;5087408;28;20028;-83
2023/09/05 07:52:25;;;;;;;2.20;1.48;;;20.50;99.90;;;;;;5087267;28;20034;-83
2023/09/05 07:54:51;;;;;;;4.68;1.67;;;20.50;99.90;;;;;;5068608;28;20028;-82
2023/09/05 07:57:18;;;;;;;2.20;1.40;;;20.50;99.90;;;;;;5086354;28;20039;-85
2023/09/05 07:59:47;;;;;;;2.92;1.40;;;20.50;99.90;;;;;;5086682;28;20045;-84
2023/09/05 08:02:13;;;;;;;4.25;1.88;;;20.70;99.90;;;;;;5085877;28;20121;-82
2023/09/05 08:04:39;;;;;;;3.03;1.83;;;20.80;99.90;;;;;;5086566;28;20531;-82
2023/09/05 08:07:07;;;;;;;4.00;2.10;;;20.80;99.90;;;;;;5085798;28;20063;-84
2023/09/05 08:09:34;;;;;;;5.93;1.75;;;20.80;99.90;;;;;;5068614;28;20032;-82
2023/09/05 08:12:01;;;;;;;9.40;1.98;;;20.80;99.90;;;;;;5062432;28;20759;-85
2023/09/05 08:14:29;;;;;;;4.57;2.00;;;20.90;99.90;;;;;;5086303;28;20357;-85
2023/09/05 08:16:54;;;;;;;4.82;1.98;;;20.90;99.90;;;;;;5086683;28;20055;-82
2023/09/05 08:19:20;;;;;;;4.35;1.80;;;20.90;99.90;;;;;;5069185;28;20464;-85
2023/09/05 08:21:46;;;;;;;3.58;1.70;;;20.90;99.90;;;;;;5067107;28;20039;-84
2023/09/05 08:24:14;;;;;;;5.57;1.98;;;21.00;99.90;;;;;;5064962;28;20082;-85
2023/09/05 08:26:39;;;;;;;2.35;1.50;;;21.00;99.90;;;;;;5068560;28;20173;-84
2023/09/05 08:29:07;;;;;;;4.43;1.60;;;21.10;99.90;;;;;;5064471;28;20127;-81
2023/09/05 08:31:35;;;;;;;5.85;1.77;;;21.10;99.90;;;;;;5068087;28;20882;-84
2023/09/05 08:34:00;;;;;;;7.60;2.70;;;21.20;99.90;;;;;;5067101;28;20055;-84
2023/09/05 08:36:28;;;;;;;6.55;1.90;;;21.20;99.90;;;;;;5085867;28;20192;-82
2023/09/05 08:38:55;;;;;;;2.88;1.77;;;21.20;99.90;;;;;;5065702;28;20024;-84
2023/09/05 08:41:21;;;;;;;5.60;1.58;;;21.30;99.90;;;;;;5084885;28;20020;-79
2023/09/05 08:43:46;;;;;;;2.00;1.30;;;21.30;99.90;;;;;;5067102;28;20032;-83
2023/09/05 08:46:13;;;;;;;3.95;2.15;;;21.30;99.90;;;;;;5089954;28;20032;-85
2023/09/05 08:48:41;;;;;;;3.38;1.77;;;21.40;99.90;;;;;;5072713;28;20077;-83
2023/09/05 08:51:12;;;;;;;3.60;1.77;;;21.40;99.90;;;;;;5071989;28;20251;-83
2023/09/05 08:53:42;;;;;;;1.90;1.23;;;21.40;99.90;;;;;;5070717;28;20036;-82
2023/09/05 08:56:10;;;;;;;2.72;1.30;;;21.40;99.90;;;;;;5069171;28;20046;-81
2023/09/05 08:58:38;;;;;;;5.20;1.67;;;21.50;99.90;;;;;;5089784;28;20036;-84
2023/09/05 09:01:03;;;;;;;3.15;1.58;;;21.60;99.90;;;;;;5070926;28;20111;-84
2023/09/05 09:03:30;;;;;;;2.47;1.25;;;21.60;99.90;;;;;;5090594;28;20429;-83
2023/09/05 09:05:58;;;;;;;3.00;1.55;;;21.60;99.90;;;;;;5072276;28;20058;-83
2023/09/05 09:08:24;;;;;;;2.05;1.48;;;21.70;99.90;;;;;;5073988;28;20142;-79
2023/09/05 09:11:07;;;;;;;3.65;1.63;;;21.80;99.90;;;;;;5089128;28;20946;-83
2023/09/05 09:13:33;;;;;;;5.35;2.00;;;21.80;99.90;;;;;;5071062;28;20039;-84
2023/09/05 09:16:02;;;;;;;2.75;1.30;;;21.90;99.90;;;;;;5093812;28;20070;-84
2023/09/05 09:18:31;;;;;;;4.55;1.60;;;21.90;99.90;;;;;;5070028;28;20122;-83
2023/09/05 09:21:01;;;;;;;3.90;1.70;;;22.00;99.90;;;;;;5073998;28;20039;-79
2023/09/05 09:23:35;;;;;;;4.97;1.45;;;22.00;99.90;;;;;;5073088;28;20042;-83
2023/09/05 09:26:05;;;;;;;2.70;1.52;;;22.10;99.90;;;;;;5088939;28;20026;-79
2023/09/05 09:28:32;;;;;;;2.40;1.50;;;22.10;99.90;;;;;;5088965;28;20024;-83
2023/09/05 09:31:13;;;;;;;2.28;1.33;;;22.20;99.90;;;;;;5089304;28;20024;-83
2023/09/05 09:33:40;;;;;;;3.40;1.30;;;22.30;99.90;;;;;;5088885;28;20046;-82
2023/09/05 09:36:08;;;;;;;2.58;1.58;;;22.30;99.90;;;;;;5070176;28;20036;-83
2023/09/05 09:38:34;;;;;;;1.70;1.40;;;22.30;99.90;;;;;;5087514;28;20032;-82
2023/09/05 09:41:05;;;;;;;2.17;1.42;;;22.30;99.90;;;;;;5071034;28;20020;-83
2023/09/05 09:43:31;;;;;;;2.28;1.35;;;22.40;99.90;;;;;;5087962;28;20028;-81
2023/09/05 09:46:04;;;;;;;2.78;1.42;;;22.50;99.90;;;;;;5088636;28;20036;-84
2023/09/05 09:48:31;;;;;;;4.38;1.60;;;22.50;99.90;;;;;;5070332;28;20077;-83
2023/09/05 09:51:00;;;;;;;2.38;1.40;;;22.60;99.90;;;;;;5067069;28;20445;-81
2023/09/05 09:53:38;;;;;;;1.95;1.20;;;22.50;99.90;;;;;;5068941;28;20088;-83
2023/09/05 09:56:15;;;;;;;2.40;1.38;;;22.60;99.90;;;;;;5069990;28;20089;-83
2023/09/05 09:58:45;;;;;;;4.63;1.60;;;22.60;99.90;;;;;;5063803;28;20035;-81
2023/09/05 10:01:12;;;;;;;4.75;1.77;;;22.70;99.90;;;;;;5088125;28;20085;-81
2023/09/05 10:03:39;;;;;;;4.00;1.70;;;22.80;99.90;;;;;;5069903;28;20036;-81
2023/09/05 10:06:10;;;;;;;6.18;1.27;;;22.80;99.90;;;;;;5070704;28;20052;-81
2023/09/05 10:08:36;;;;;;;3.43;1.40;;;22.80;99.90;;;;;;5088169;28;20055;-81
2023/09/05 10:11:05;;;;;;;2.00;1.30;;;22.80;99.90;;;;;;5087888;28;20313;-82
2023/09/05 10:13:38;;;;;;;1.90;1.45;;;22.90;99.90;;;;;;5070438;28;20043;-83
2023/09/05 10:16:07;;;;;;;3.60;1.27;;;23.00;99.90;;;;;;5088078;28;20030;-82
2023/09/05 10:18:38;;;;;;;6.10;1.40;;;22.90;99.90;;;;;;5066814;28;20036;-80
2023/09/05 10:21:04;;;;;;;1.95;1.30;;;23.00;99.90;;;;;;5088417;28;20020;-83
2023/09/05 10:23:31;;;;;;;5.55;1.60;;;23.10;99.90;;;;;;5070090;28;20042;-84
2023/09/05 10:25:59;;;;;;;2.35;1.40;;;23.20;99.90;;;;;;5087566;28;20035;-82
2023/09/05 10:28:28;;;;;;;2.95;1.33;;;23.30;99.90;;;;;;5087458;28;20031;-81
2023/09/05 10:31:02;;;;;;;3.67;1.63;;;23.40;99.90;;;;;;5087086;28;20024;-82
2023/09/05 10:33:36;;;;;;;3.47;1.23;;;23.50;99.90;;;;;;5068780;28;20035;-83
2023/09/05 10:36:02;;;;;;;5.93;1.35;;;23.50;99.90;;;;;;5069281;28;20132;-82
2023/09/05 10:38:31;;;;;;;3.55;1.38;;;23.60;99.90;;;;;;5086941;28;20169;-81
2023/09/05 10:40:57;;;;;;;3.85;1.30;;;23.60;99.90;;;;;;5069351;28;20028;-80
2023/09/05 10:43:22;;;;;;;4.75;1.33;;;23.70;99.90;;;;;;5087315;28;20032;-82
2023/09/05 10:45:57;;;;;;;6.70;1.52;;;23.70;99.90;;;;;;5068790;28;20035;-81
2023/09/05 10:49:08;;;;;;;2.88;1.30;;;23.80;99.90;;;;;;5069162;28;20027;-82
2023/09/05 10:51:34;;;;;;;2.22;1.35;;;23.90;99.90;;;;;;5075485;28;20040;-81
2023/09/05 10:54:26;;;;;;;1.98;1.35;;;24.00;99.90;;;;;;5068113;28;20039;-82
2023/09/05 10:56:52;;;;;;;3.97;1.40;;;24.10;99.90;;;;;;5086433;28;20039;-82
2023/09/05 10:59:28;;;;;;;2.20;1.35;;;24.10;99.90;;;;;;5065035;28;20032;-83
2023/09/05 11:02:00;;;;;;;3.75;1.40;;;24.20;99.90;;;;;;5086890;28;20119;-83
2023/09/05 11:04:27;;;;;;;3.17;2.13;;;24.20;99.90;;;;;;5067109;28;20024;-81
2023/09/05 11:07:00;;;;;;;3.58;1.50;;;24.20;99.90;;;;;;5085820;28;20027;-79
2023/09/05 11:09:26;;;;;;;2.50;1.42;;;24.30;99.90;;;;;;5085722;28;20123;-80
2023/09/05 11:11:53;;;;;;;2.00;1.30;;;24.40;99.90;;;;;;5067621;28;20118;-83
2023/09/05 11:14:33;;;;;;;3.63;1.48;;;24.50;99.90;;;;;;5067823;28;20028;-82
2023/09/05 11:16:58;;;;;;;5.88;1.58;;;24.60;99.90;;;;;;5061661;28;20051;-81
2023/09/05 11:19:30;;;;;;;1.95;1.40;;;24.60;99.90;;;;;;5085216;28;20036;-83
2023/09/05 11:22:10;;;;;;;3.90;1.35;;;24.70;99.90;;;;;;5086299;28;20032;-82
2023/09/05 11:24:37;;;;;;;6.80;1.90;;;24.80;99.90;;;;;;5068248;28;20047;-81
2023/09/05 11:27:06;;;;;;;2.60;1.50;;;24.90;99.90;;;;;;5065245;28;20032;-80
2023/09/05 11:29:34;;;;;;;2.60;1.02;;;24.90;99.90;;;;;;5086275;28;20027;-80
2023/09/05 11:32:00;;;;;;;1.38;0.95;;;25.00;99.90;;;;;;5089588;28;20601;-80
2023/09/05 11:34:29;;;;;;;1.95;1.20;;;25.10;99.90;;;;;;5066778;28;20031;-81
2023/09/05 11:36:56;;;;;;;2.50;1.10;;;25.10;99.90;;;;;;5089918;28;20027;-79
2023/09/05 11:39:27;;;;;;;1.65;0.95;;;25.10;99.90;;;;;;5067814;28;20028;-82
2023/09/05 11:41:57;;;;;;;3.25;1.40;;;25.20;99.90;;;;;;5067874;28;20044;-82
2023/09/05 11:44:39;;;;;;;3.13;1.08;;;25.20;99.90;;;;;;5085925;28;20036;-82
2023/09/05 11:47:04;;;;;;;;;;;25.30;99.90;;;;;;5085814;28;20031;-82
2023/09/05 11:49:32;;;;;;;5.40;1.00;;;25.30;99.90;;;;;;5067198;28;19920;-79
2023/09/05 11:52:00;;;;;;;2.63;1.02;;;25.30;99.90;;;;;;5085258;28;20172;-79
2023/09/05 11:54:31;;;;;;;2.67;1.08;;;25.40;99.90;;;;;;5063700;28;20031;-82
2023/09/05 11:56:57;;;;;;;;;;;25.40;99.90;;;;;;5086047;28;20028;-81
2023/09/05 11:59:24;;;;;;;3.15;1.10;;;25.50;99.90;;;;;;5085389;28;19912;-82
2023/09/05 12:01:53;;;;;;;1.70;1.15;;;25.50;99.90;;;;;;5059964;28;20360;-82
2023/09/05 12:04:18;;;;;;;2.40;1.25;;;25.60;99.90;;;;;;5066807;28;20036;-79
2023/09/05 12:06:51;;;;;;;4.32;0.95;;;25.70;99.90;;;;;;5085566;28;20043;-81
2023/09/05 12:09:20;;;;;;;3.92;1.40;;;25.70;99.90;;;;;;5084970;28;20031;-80
2023/09/05 12:11:47;;;;;;;1.90;1.10;;;25.70;99.90;;;;;;5084856;28;20036;-79
2023/09/05 12:14:16;;;;;;;1.55;1.00;;;25.80;99.90;;;;;;5088518;28;20067;-80
2023/09/05 12:16:47;;;;;;;9.82;1.40;;;25.90;99.90;;;;;;5066824;28;20031;-79
2023/09/05 12:19:15;;;;;;;1.80;1.02;;;25.90;99.90;;;;;;5067775;28;20121;-82
2023/09/05 12:21:42;;;;;;;4.13;1.02;;;26.00;99.90;;;;;;5067705;28;20024;-81
2023/09/05 12:24:23;;;;;;;2.50;0.90;;;26.10;99.90;;;;;;5088171;28;20082;-79
2023/09/05 12:26:49;;;;;;;1.73;1.13;;;26.10;99.90;;;;;;5066316;28;20035;-81
2023/09/05 12:29:21;;;;;;;2.45;1.20;;;26.10;99.90;;;;;;5084294;28;20036;-82
2023/09/05 12:31:50;;;;;;;1.55;1.10;;;26.10;99.80;;;;;;5084391;28;20032;-81
2023/09/05 12:34:18;;;;;;;1.92;1.00;;;26.20;99.90;;;;;;5063242;28;20050;-82
2023/09/05 12:36:44;;;;;;;2.70;1.08;;;26.30;99.90;;;;;;5085285;28;20075;-82
2023/09/05 12:39:11;;;;;;;2.88;1.17;;;26.30;99.60;;;;;;5064011;28;20486;-82
2023/09/05 12:41:40;;;;;;;1.75;1.08;;;26.40;99.60;;;;;;5084454;28;20039;-82
2023/09/05 12:44:08;;;;;;;5.10;1.15;;;26.40;99.40;;;;;;5085286;28;20046;-79
2023/09/05 12:46:34;;;;;;;1.70;1.00;;;26.50;98.80;;;;;;5085009;28;20039;-82
2023/09/05 12:49:03;;;;;;;3.60;1.13;;;26.70;98.50;;;;;;5063972;28;20583;-78
2023/09/05 12:51:30;;;;;;;3.47;1.00;;;26.80;98.70;;;;;;5065529;28;20043;-82